Time;durP1;ratioP1;P1;durP2;ratioP2;P2;SDS_P1;SDS_P2;PMS_P1;PMS_P2;Temp;Humidity;BMP_temperature;BMP_pressure;BME280_temperature;BME280_humidity;BME280_pressure;Samples;Min_cycle;Max_cycle;Signal;HPM_P1;HPM_P2
2021/08/21 00:01:52;;;;;;;6.45;5.90;;;;;;;19.01;63.07;101096.31;5053816;28;20024;-53
2021/08/21 00:04:18;;;;;;;7.07;6.38;;;;;;;18.99;63.05;101091.03;5040002;28;20094;-54
2021/08/21 00:06:43;;;;;;;6.47;5.95;;;;;;;18.99;63.23;101088.34;5052545;28;20021;-54
2021/08/21 00:09:09;;;;;;;7.38;6.72;;;;;;;18.98;63.14;101090.13;5036175;28;20036;-54
2021/08/21 00:11:35;;;;;;;7.15;6.45;;;;;;;19.00;62.97;101089.22;5054085;28;20395;-52
2021/08/21 00:14:00;;;;;;;6.80;6.20;;;;;;;18.98;63.06;101081.28;5053098;28;20017;-52
2021/08/21 00:16:25;;;;;;;6.43;5.93;;;;;;;18.97;63.06;101084.84;5054155;28;20445;-52
2021/08/21 00:18:51;;;;;;;6.75;6.10;;;;;;;18.98;63.01;101083.94;5053966;28;20025;-53
2021/08/21 00:21:16;;;;;;;6.70;6.13;;;;;;;18.96;62.94;101080.44;5053789;28;20031;-54
2021/08/21 00:23:42;;;;;;;6.65;6.05;;;;;;;18.97;62.83;101087.53;5053204;28;20439;-53
2021/08/21 00:26:07;;;;;;;6.63;6.05;;;;;;;18.96;62.92;101093.81;5052643;28;20082;-53
2021/08/21 00:28:33;;;;;;;7.25;6.63;;;;;;;18.94;62.92;101082.31;5034797;28;20108;-51
2021/08/21 00:30:58;;;;;;;7.07;6.57;;;;;;;18.95;62.75;101078.72;5019211;28;20021;-50
2021/08/21 00:33:23;;;;;;;6.25;5.75;;;;;;;18.94;62.96;101076.97;5036330;28;20122;-53
2021/08/21 00:35:49;;;;;;;6.65;6.15;;;;;;;18.93;63.00;101084.09;5052840;22;20509;-51
2021/08/21 00:38:14;;;;;;;6.25;5.72;;;;;;;18.94;62.92;101087.66;5015520;28;20032;-51
2021/08/21 00:40:40;;;;;;;6.93;6.30;;;;;;;18.93;62.86;101078.75;5010996;28;20065;-52
2021/08/21 00:43:05;;;;;;;7.05;6.35;;;;;;;18.92;62.84;101087.72;5029990;28;20061;-52
2021/08/21 00:45:30;;;;;;;7.60;7.00;;;;;;;18.92;62.72;101082.38;5014238;28;20068;-52
2021/08/21 00:47:56;;;;;;;7.05;6.35;;;;;;;18.92;62.67;101084.16;5013347;28;20462;-52
2021/08/21 00:50:21;;;;;;;6.80;6.20;;;;;;;18.91;62.68;101085.09;5016439;28;20037;-52
2021/08/21 00:52:47;;;;;;;7.10;6.47;;;;;;;18.91;62.59;101075.25;5011781;28;20057;-54
2021/08/21 00:55:12;;;;;;;7.35;6.70;;;;;;;18.91;62.79;101090.44;5012939;28;20026;-53
2021/08/21 00:57:37;;;;;;;6.68;6.07;;;;;;;18.90;63.02;101075.34;5015133;28;20629;-54
2021/08/21 01:00:04;;;;;;;7.03;6.43;;;;;;;18.90;62.83;101084.22;5014707;28;20548;-53
2021/08/21 01:02:31;;;;;;;6.35;5.82;;;;;;;18.89;62.83;101081.59;5010403;28;20176;-54
2021/08/21 01:04:57;;;;;;;7.40;6.70;;;;;;;18.89;62.52;101076.25;5000333;28;20021;-53
2021/08/21 01:07:28;;;;;;;7.13;6.53;;;;;;;18.88;62.59;101078.06;5015377;28;20048;-53
2021/08/21 01:09:53;;;;;;;6.82;6.20;;;;;;;18.87;62.55;101075.47;5009281;28;20029;-53
2021/08/21 01:12:20;;;;;;;7.28;6.57;;;;;;;18.88;62.76;101074.53;5014565;28;20026;-52
2021/08/21 01:14:46;;;;;;;6.45;5.90;;;;;;;18.87;62.97;101078.13;5019276;28;20033;-53
2021/08/21 01:17:12;;;;;;;6.97;6.38;;;;;;;18.88;62.86;101077.19;5011288;28;20025;-53
2021/08/21 01:19:40;;;;;;;7.38;6.68;;;;;;;18.87;62.71;101070.13;5012149;28;20028;-53
2021/08/21 01:22:11;;;;;;;7.13;6.50;;;;;;;18.84;62.68;101077.31;4999687;28;20077;-54
2021/08/21 01:24:37;;;;;;;6.65;6.07;;;;;;;18.84;62.57;101079.97;4999016;28;20025;-53
2021/08/21 01:27:02;;;;;;;6.60;6.00;;;;;;;18.85;62.41;101084.38;4996418;28;20030;-51
2021/08/21 01:29:27;;;;;;;7.25;6.65;;;;;;;18.83;62.24;101082.69;4994552;28;20044;-51
2021/08/21 01:31:53;;;;;;;5.90;5.40;;;;;;;18.86;62.32;101087.94;5012441;28;20116;-52
2021/08/21 01:34:18;;;;;;;6.57;5.95;;;;;;;18.85;62.20;101086.19;5013966;28;20097;-51
2021/08/21 01:36:46;;;;;;;6.53;5.90;;;;;;;18.85;62.45;101089.72;5011990;28;20104;-52
2021/08/21 01:39:12;;;;;;;7.32;6.65;;;;;;;18.84;62.68;101092.47;5015763;28;20068;-52
2021/08/21 01:41:38;;;;;;;7.10;6.50;;;;;;;18.84;62.38;101087.13;5014024;28;20736;-51
2021/08/21 01:44:10;;;;;;;5.90;5.40;;;;;;;18.83;62.66;101083.59;5011031;28;20025;-51
2021/08/21 01:46:36;;;;;;;7.05;6.45;;;;;;;18.84;62.39;101085.31;5015352;28;20033;-51
2021/08/21 01:49:02;;;;;;;7.32;6.72;;;;;;;18.84;62.30;101084.47;5015696;28;20038;-51
2021/08/21 01:51:30;;;;;;;7.00;6.40;;;;;;;18.83;62.14;101080.91;4998016;28;20397;-52
2021/08/21 01:53:57;;;;;;;6.90;6.32;;;;;;;18.83;62.21;101085.38;5013889;28;20060;-51
2021/08/21 01:56:24;;;;;;;7.60;6.95;;;;;;;18.82;62.51;101083.63;5015778;28;20026;-51
2021/08/21 01:58:49;;;;;;;8.25;7.40;;;;;;;18.82;62.63;101089.88;5010948;28;20026;-52
2021/08/21 02:01:15;;;;;;;7.68;7.07;;;;;;;18.82;62.48;101089.88;5011524;28;20021;-52
2021/08/21 02:03:42;;;;;;;7.10;6.50;;;;;;;18.80;62.55;101093.50;5014931;28;20022;-51
2021/08/21 02:06:07;;;;;;;7.32;6.63;;;;;;;18.80;62.28;101089.03;5012229;28;20026;-51
2021/08/21 02:08:33;;;;;;;6.95;6.30;;;;;;;18.80;62.59;101088.16;5011279;28;20030;-51
2021/08/21 02:10:58;;;;;;;7.55;6.85;;;;;;;18.79;62.08;101089.97;5016371;28;20044;-51
2021/08/21 02:13:23;;;;;;;7.63;6.93;;;;;;;18.79;62.24;101092.66;5013378;28;20017;-52
2021/08/21 02:15:49;;;;;;;7.28;6.68;;;;;;;18.80;62.18;101094.38;5010456;28;20041;-51
2021/08/21 02:18:14;;;;;;;7.80;7.07;;;;;;;18.80;61.92;101098.84;4998096;28;20546;-52
2021/08/21 02:20:40;;;;;;;7.35;6.75;;;;;;;18.78;61.86;101088.25;5016356;28;20018;-53
2021/08/21 02:23:05;;;;;;;7.80;7.10;;;;;;;18.79;61.70;101089.09;5020754;28;20018;-52
2021/08/21 02:25:31;;;;;;;7.95;7.15;;;;;;;18.78;62.10;101090.91;4996208;28;20702;-52
2021/08/21 02:27:58;;;;;;;7.75;7.05;;;;;;;18.79;62.02;101098.00;5010835;28;20026;-51
2021/08/21 02:30:24;;;;;;;7.97;7.28;;;;;;;18.79;61.86;101091.75;4986262;28;20049;-51
2021/08/21 02:32:50;;;;;;;7.70;7.00;;;;;;;18.76;61.77;101087.41;5009115;28;20548;-51
2021/08/21 02:35:16;;;;;;;8.27;7.47;;;;;;;18.76;61.57;101087.41;4985836;28;20112;-51
2021/08/21 02:37:41;;;;;;;8.02;7.10;;;;;;;18.76;61.93;101086.53;5015441;28;20014;-51
2021/08/21 02:40:07;;;;;;;8.00;6.82;;;;;;;18.75;61.89;101095.47;4997257;28;20025;-51
2021/08/21 02:42:32;;;;;;;8.13;7.43;;;;;;;18.74;62.14;101099.09;4977270;28;20053;-51
2021/08/21 02:44:58;;;;;;;6.80;6.13;;;;;;;18.73;61.88;101090.19;4994027;28;20112;-52
2021/08/21 02:47:23;;;;;;;7.38;6.72;;;;;;;18.74;61.77;101083.91;5013597;28;20396;-53
2021/08/21 02:49:48;;;;;;;6.85;6.35;;;;;;;18.72;61.72;101086.66;5013343;28;20038;-52
2021/08/21 02:52:14;;;;;;;8.10;7.30;;;;;;;18.71;62.34;101086.72;5016373;28;20022;-52
2021/08/21 02:54:40;;;;;;;8.00;7.30;;;;;;;18.70;61.84;101084.94;4985580;28;20045;-52
2021/08/21 02:57:05;;;;;;;7.55;6.85;;;;;;;18.71;61.80;101084.91;4997283;28;20068;-51
2021/08/21 02:59:31;;;;;;;7.65;6.95;;;;;;;18.70;61.96;101083.16;5012111;28;20555;-52
2021/08/21 03:01:56;;;;;;;6.88;6.28;;;;;;;18.73;61.78;101079.50;4999139;28;20025;-52
2021/08/21 03:04:21;;;;;;;8.13;7.10;;;;;;;18.69;61.32;101080.53;4992858;28;20149;-52
2021/08/21 03:06:47;;;;;;;8.02;7.32;;;;;;;18.71;61.31;101092.06;5019564;28;20062;-51
2021/08/21 03:09:12;;;;;;;7.25;6.65;;;;;;;18.67;61.74;101088.63;4984625;28;20393;-51
2021/08/21 03:11:38;;;;;;;8.18;7.47;;;;;;;18.69;61.81;101088.56;4984635;28;20025;-51
2021/08/21 03:14:03;;;;;;;7.22;6.53;;;;;;;18.67;61.62;101085.94;4998811;28;20053;-50
2021/08/21 03:16:28;;;;;;;7.57;6.80;;;;;;;18.70;61.62;101084.94;4999159;28;20504;-53
2021/08/21 03:18:54;;;;;;;7.82;7.22;;;;;;;18.68;61.55;101087.69;5020822;28;20028;-53
2021/08/21 03:21:19;;;;;;;7.45;6.85;;;;;;;18.67;61.42;101082.41;5000516;28;20668;-52
2021/08/21 03:23:44;;;;;;;7.60;6.95;;;;;;;18.67;61.85;101085.09;5016201;28;20453;-52
2021/08/21 03:26:10;;;;;;;7.65;6.95;;;;;;;18.67;61.35;101087.75;4988323;28;20379;-52
2021/08/21 03:28:35;;;;;;;7.88;7.15;;;;;;;18.65;61.44;101089.59;5013506;28;20026;-52
2021/08/21 03:31:01;;;;;;;7.53;6.93;;;;;;;18.66;61.41;101096.69;5021761;28;20026;-52
2021/08/21 03:33:26;;;;;;;7.85;7.15;;;;;;;18.63;61.38;101092.31;5014490;28;20504;-52
2021/08/21 03:35:51;;;;;;;6.78;6.18;;;;;;;18.61;61.52;101090.66;5014597;28;20033;-52
2021/08/21 03:38:17;;;;;;;7.57;6.93;;;;;;;18.62;61.58;101090.59;5016298;28;20128;-52
2021/08/21 03:40:42;;;;;;;7.75;7.05;;;;;;;18.63;61.39;101097.66;5016691;28;20029;-52
2021/08/21 03:43:08;;;;;;;7.45;6.75;;;;;;;18.61;61.47;101098.66;5017571;28;20374;-52
2021/08/21 03:45:33;;;;;;;7.68;6.97;;;;;;;18.59;61.56;101101.38;5016394;28;20109;-52
2021/08/21 03:47:59;;;;;;;7.90;7.30;;;;;;;18.57;61.73;101098.75;4997563;28;20029;-52
2021/08/21 03:50:24;;;;;;;7.88;7.18;;;;;;;18.51;61.69;101088.28;5014095;28;20489;-52
2021/08/21 03:52:49;;;;;;;8.32;7.53;;;;;;;18.57;61.26;101093.44;5013129;28;20397;-52
2021/08/21 03:55:15;;;;;;;7.10;6.45;;;;;;;18.53;61.63;101086.44;5013382;28;20018;-52
2021/08/21 03:57:41;;;;;;;8.02;7.32;;;;;;;18.54;61.40;101087.34;5009650;28;20152;-52
2021/08/21 04:00:06;;;;;;;8.02;7.32;;;;;;;18.54;61.43;101085.50;5014639;28;20104;-52
2021/08/21 04:02:33;;;;;;;7.25;6.65;;;;;;;18.52;61.22;101092.72;5016668;28;20025;-52
2021/08/21 04:04:58;;;;;;;7.20;6.55;;;;;;;18.50;61.37;101093.72;5016100;28;20025;-52
2021/08/21 04:07:23;;;;;;;7.82;7.13;;;;;;;18.50;61.51;101091.03;5018589;28;20053;-52
2021/08/21 04:09:49;;;;;;;8.07;7.38;;;;;;;18.48;61.44;101092.88;5014023;28;20054;-52
2021/08/21 04:12:16;;;;;;;7.65;7.00;;;;;;;18.50;61.16;101099.06;5013678;28;20022;-52
2021/08/21 04:14:41;;;;;;;7.20;6.57;;;;;;;18.46;61.71;101095.59;5016527;28;20041;-52
2021/08/21 04:17:06;;;;;;;7.28;6.65;;;;;;;18.48;61.44;101093.75;5015682;28;20056;-52
2021/08/21 04:19:32;;;;;;;7.32;6.65;;;;;;;18.46;61.52;101100.94;5013582;28;20079;-52
2021/08/21 04:21:57;;;;;;;8.30;7.50;;;;;;;18.47;61.69;101102.69;5015410;28;20371;-52
2021/08/21 04:24:22;;;;;;;7.55;6.85;;;;;;;18.46;61.41;101104.50;5018856;28;20025;-52
2021/08/21 04:26:48;;;;;;;7.10;6.50;;;;;;;18.48;61.18;101108.91;5015295;28;20037;-52
2021/08/21 04:29:13;;;;;;;7.88;7.18;;;;;;;18.48;60.94;101107.13;5018853;28;20022;-52
2021/08/21 04:31:39;;;;;;;7.97;7.25;;;;;;;18.46;61.46;101104.50;4998584;28;20057;-52
2021/08/21 04:34:04;;;;;;;7.75;7.15;;;;;;;18.43;61.15;101107.28;4997195;28;20017;-52
2021/08/21 04:36:29;;;;;;;8.13;7.38;;;;;;;18.42;61.43;101105.53;5015970;28;20473;-52
2021/08/21 04:38:54;;;;;;;7.30;6.68;;;;;;;18.39;61.47;101104.75;4996234;28;20033;-51
2021/08/21 04:41:20;;;;;;;8.18;7.47;;;;;;;18.40;61.47;101111.84;5016589;28;20045;-51
2021/08/21 04:43:45;;;;;;;7.13;6.53;;;;;;;18.42;60.98;101110.00;5014738;28;20026;-50
2021/08/21 04:46:11;;;;;;;7.57;6.88;;;;;;;18.39;61.20;101110.09;5015565;28;20045;-51
2021/08/21 04:48:36;;;;;;;8.35;7.55;;;;;;;18.40;61.20;101117.19;4998406;28;20035;-50
2021/08/21 04:51:01;;;;;;;8.30;7.60;;;;;;;18.38;61.46;101113.69;5019066;28;20075;-50
2021/08/21 04:53:27;;;;;;;7.22;6.57;;;;;;;18.39;61.35;101115.44;5013636;28;20026;-51
2021/08/21 04:55:52;;;;;;;9.10;7.53;;;;;;;18.39;61.17;101120.78;5012355;28;20072;-50
2021/08/21 04:58:17;;;;;;;7.65;6.95;;;;;;;18.35;61.07;101114.69;4996675;28;20029;-50
2021/08/21 05:00:43;;;;;;;7.13;6.53;;;;;;;18.37;61.05;101114.63;4999642;28;20014;-51
2021/08/21 05:03:08;;;;;;;6.82;6.25;;;;;;;18.38;61.14;101117.25;5016434;28;20045;-51
2021/08/21 05:05:33;;;;;;;7.70;7.10;;;;;;;18.37;61.33;101115.50;5011960;28;20597;-50
2021/08/21 05:07:59;;;;;;;7.93;7.22;;;;;;;18.36;61.20;101111.09;4998100;28;20033;-51
2021/08/21 05:10:24;;;;;;;7.88;7.18;;;;;;;18.37;61.14;101112.81;5016527;28;20024;-50
2021/08/21 05:12:49;;;;;;;7.03;6.43;;;;;;;18.34;61.20;101116.47;4996994;28;20030;-51
2021/08/21 05:15:15;;;;;;;7.97;7.28;;;;;;;18.37;61.23;101122.66;5015713;28;20085;-51
2021/08/21 05:17:40;;;;;;;8.50;7.70;;;;;;;18.34;61.57;101120.94;5012603;28;20026;-51
2021/08/21 05:20:14;;;;;;;8.57;7.78;;;;;;;18.32;61.48;101131.69;5012017;28;20101;-51
2021/08/21 05:22:59;;;;;;;8.50;7.72;;;;;;;18.29;61.41;101123.78;5015465;28;20026;-51
2021/08/21 05:25:24;;;;;;;7.30;6.68;;;;;;;18.27;61.46;101122.09;5018139;28;20410;-50
2021/08/21 05:27:50;;;;;;;7.93;7.18;;;;;;;18.25;61.67;101121.25;4998368;28;20046;-51
2021/08/21 05:30:16;;;;;;;8.50;7.22;;;;;;;18.27;61.82;101119.44;4998237;28;20483;-50
2021/08/21 05:32:41;;;;;;;8.43;7.72;;;;;;;18.27;61.39;101120.28;4994610;28;20525;-52
2021/08/21 05:35:07;;;;;;;8.10;7.30;;;;;;;18.27;61.33;101122.94;5012605;28;20040;-50
2021/08/21 05:37:32;;;;;;;7.35;6.72;;;;;;;18.26;61.83;101131.00;5015081;28;20033;-50
2021/08/21 05:39:58;;;;;;;7.95;7.15;;;;;;;18.23;61.57;101115.97;4997649;28;20026;-51
2021/08/21 05:42:23;;;;;;;8.68;7.82;;;;;;;18.25;61.55;101122.16;5000490;28;20029;-51
2021/08/21 05:44:50;;;;;;;7.95;7.35;;;;;;;18.24;61.83;101122.19;5017118;28;20025;-50
2021/08/21 05:47:15;;;;;;;7.22;6.53;;;;;;;18.21;61.70;101123.19;5010889;28;20168;-50
2021/08/21 05:49:40;;;;;;;7.57;6.80;;;;;;;18.22;62.07;101122.25;5013991;28;20100;-52
2021/08/21 05:52:06;;;;;;;8.27;7.57;;;;;;;18.22;61.90;101124.91;5012347;28;20052;-52
2021/08/21 05:54:31;;;;;;;7.57;6.93;;;;;;;18.19;62.11;101122.34;5015176;28;20044;-50
2021/08/21 05:56:57;;;;;;;8.60;7.80;;;;;;;18.23;61.86;101126.66;5013295;28;20060;-51
2021/08/21 05:59:23;;;;;;;7.15;6.57;;;;;;;18.23;61.85;101126.66;4995148;28;20025;-51
2021/08/21 06:01:48;;;;;;;8.02;7.25;;;;;;;18.21;61.87;101125.84;5011902;28;20371;-53
2021/08/21 06:04:13;;;;;;;7.28;6.68;;;;;;;18.19;61.94;101128.56;5011242;28;20499;-53
2021/08/21 06:06:39;;;;;;;7.90;7.18;;;;;;;18.20;61.88;101132.97;5011858;28;20026;-53
2021/08/21 06:09:04;;;;;;;7.60;6.90;;;;;;;18.21;61.82;101134.72;5016502;28;20028;-53
2021/08/21 06:11:30;;;;;;;7.82;7.13;;;;;;;18.20;61.80;101140.09;5011871;28;20037;-53
2021/08/21 06:13:55;;;;;;;8.25;7.45;;;;;;;18.17;62.25;101137.56;5010634;28;20236;-53
2021/08/21 06:16:20;;;;;;;9.48;7.47;;;;;;;18.17;62.07;101142.91;4997349;28;20469;-53
2021/08/21 06:18:46;;;;;;;7.35;6.75;;;;;;;18.18;61.94;101145.47;5013263;28;20062;-53
2021/08/21 06:21:12;;;;;;;7.75;7.15;;;;;;;18.19;62.16;101141.03;5014062;28;20036;-54
2021/08/21 06:23:37;;;;;;;7.30;6.70;;;;;;;18.14;62.48;101154.53;5011221;28;20034;-53
2021/08/21 06:26:02;;;;;;;8.85;7.82;;;;;;;18.14;62.23;101146.50;5011699;28;20025;-53
2021/08/21 06:28:28;;;;;;;8.75;7.95;;;;;;;18.12;62.35;101147.50;4994841;28;20022;-52
2021/08/21 06:30:53;;;;;;;8.00;7.30;;;;;;;18.10;62.27;101144.03;5013252;28;20021;-53
2021/08/21 06:33:18;;;;;;;7.35;6.75;;;;;;;18.08;62.45;101139.56;5014119;28;20044;-53
2021/08/21 06:35:44;;;;;;;7.95;7.25;;;;;;;18.09;62.36;101140.47;4994713;28;20076;-53
2021/08/21 06:38:09;;;;;;;7.75;6.97;;;;;;;18.09;62.18;101145.81;5013279;28;20050;-52
2021/08/21 06:40:34;;;;;;;7.30;6.70;;;;;;;18.08;62.61;101139.56;4998344;28;20056;-52
2021/08/21 06:42:59;;;;;;;7.78;7.05;;;;;;;18.10;62.32;101147.53;5013079;28;20087;-52
2021/08/21 06:45:25;;;;;;;7.10;6.50;;;;;;;18.08;62.96;101139.56;5013008;28;20086;-52
2021/08/21 06:47:50;;;;;;;6.75;6.15;;;;;;;18.05;62.88;101150.34;5011007;28;20022;-52
2021/08/21 06:50:16;;;;;;;7.40;6.80;;;;;;;18.08;62.61;101147.56;5015503;28;20022;-52
2021/08/21 06:52:41;;;;;;;7.38;6.78;;;;;;;18.11;62.29;101143.09;5001674;28;20033;-52
2021/08/21 06:55:07;;;;;;;8.13;7.25;;;;;;;18.09;62.29;101140.47;5012798;28;20028;-52
2021/08/21 06:57:32;;;;;;;8.10;7.30;;;;;;;18.09;62.28;101140.47;5013728;28;20022;-52
2021/08/21 06:59:57;;;;;;;7.55;6.85;;;;;;;18.10;62.65;101146.69;4992586;28;20034;-52
2021/08/21 07:02:24;;;;;;;7.63;6.93;;;;;;;18.07;62.26;101134.25;5008880;28;20033;-52
2021/08/21 07:04:49;;;;;;;8.13;7.30;;;;;;;18.06;62.30;101140.53;5009818;28;20014;-52
2021/08/21 07:07:14;;;;;;;8.20;7.40;;;;;;;18.06;62.45;101141.41;4999371;28;20033;-52
2021/08/21 07:09:40;;;;;;;7.90;7.15;;;;;;;18.07;62.47;101137.81;5013875;28;20037;-52
2021/08/21 07:12:05;;;;;;;6.93;6.32;;;;;;;18.05;62.69;101137.00;5018077;28;20033;-52
2021/08/21 07:14:30;;;;;;;8.45;7.75;;;;;;;18.06;62.63;101145.88;5016179;28;20133;-52
2021/08/21 07:16:56;;;;;;;7.68;7.07;;;;;;;18.08;62.50;101152.03;4999115;28;20124;-52
2021/08/21 07:19:21;;;;;;;7.35;6.75;;;;;;;18.06;62.28;101141.41;5018231;28;20018;-52
2021/08/21 07:21:47;;;;;;;7.55;6.88;;;;;;;18.04;62.42;101135.25;5016303;28;20018;-52
2021/08/21 07:24:12;;;;;;;7.80;7.10;;;;;;;18.05;62.36;101145.03;5010105;28;20029;-52
2021/08/21 07:26:37;;;;;;;7.25;6.65;;;;;;;18.04;62.53;101143.25;5013882;28;20024;-51
2021/08/21 07:29:03;;;;;;;9.93;6.80;;;;;;;18.03;62.52;101140.63;5011054;28;20064;-50
2021/08/21 07:31:28;;;;;;;7.47;6.78;;;;;;;18.03;62.55;101140.63;4991453;28;20021;-51
2021/08/21 07:33:53;;;;;;;7.75;7.13;;;;;;;18.04;62.52;101143.25;5015866;28;20604;-52
2021/08/21 07:36:19;;;;;;;7.90;7.15;;;;;;;18.05;62.61;101139.69;5012363;28;20073;-51
2021/08/21 07:38:45;;;;;;;7.93;7.15;;;;;;;18.06;62.54;101140.53;4996161;28;20407;-51
2021/08/21 07:41:11;;;;;;;7.40;6.70;;;;;;;18.05;62.56;101146.81;5013987;28;20024;-50
2021/08/21 07:43:36;;;;;;;7.88;6.85;;;;;;;18.04;62.92;101143.25;5007790;28;20025;-53
2021/08/21 07:46:02;;;;;;;7.88;7.07;;;;;;;18.04;62.62;101156.59;4992253;28;20018;-51
2021/08/21 07:48:27;;;;;;;7.05;6.13;;;;;;;18.05;62.72;101160.16;5012620;28;20433;-52
2021/08/21 07:50:52;;;;;;;7.28;6.68;;;;;;;18.05;62.81;101149.47;5009789;28;20026;-51
2021/08/21 07:53:18;;;;;;;7.10;6.40;;;;;;;18.06;62.94;101153.88;5013954;28;20496;-51
2021/08/21 07:55:43;;;;;;;8.02;7.18;;;;;;;18.04;62.85;101153.94;5019527;28;20493;-50
2021/08/21 07:58:08;;;;;;;8.18;7.30;;;;;;;18.04;63.28;101159.25;5014728;28;20026;-51
2021/08/21 08:00:34;;;;;;;7.57;6.93;;;;;;;18.04;63.06;101153.94;5016895;28;20056;-51
2021/08/21 08:02:59;;;;;;;7.00;6.40;;;;;;;18.05;63.02;101155.69;5012568;28;20104;-51
2021/08/21 08:05:25;;;;;;;7.97;7.18;;;;;;;18.05;63.33;101153.03;5000541;28;20029;-52
2021/08/21 08:07:50;;;;;;;8.63;7.38;;;;;;;18.05;63.19;101146.81;5018337;28;20025;-51
2021/08/21 08:10:17;;;;;;;8.45;7.75;;;;;;;18.02;63.74;101155.78;5016275;28;20033;-51
2021/08/21 08:12:42;;;;;;;8.25;7.47;;;;;;;18.03;63.85;101152.19;5014610;28;20029;-52
2021/08/21 08:15:08;;;;;;;7.72;7.03;;;;;;;18.00;63.92;101156.78;5010827;28;20048;-51
2021/08/21 08:17:33;;;;;;;8.23;7.43;;;;;;;18.04;63.76;101161.94;4998239;28;20026;-52
2021/08/21 08:19:58;;;;;;;7.93;7.20;;;;;;;18.03;63.76;101159.31;5017767;28;20030;-53
2021/08/21 08:22:25;;;;;;;7.80;7.20;;;;;;;18.07;63.78;101156.50;5014920;28;20089;-51
2021/08/21 08:24:50;;;;;;;8.43;7.63;;;;;;;18.06;63.68;101160.09;5015704;28;20504;-52
2021/08/21 08:27:17;;;;;;;8.68;7.80;;;;;;;18.05;64.05;101150.34;5013060;28;20025;-51
2021/08/21 08:29:42;;;;;;;8.60;7.70;;;;;;;18.08;63.78;101152.91;5015953;28;20057;-52
2021/08/21 08:32:09;;;;;;;8.02;7.22;;;;;;;18.10;64.03;101144.03;5013767;28;20318;-52
2021/08/21 08:34:34;;;;;;;8.27;7.47;;;;;;;18.08;63.97;101144.88;4976092;28;1021900;-52
2021/08/21 08:36:59;;;;;;;10.07;8.30;;;;;;;18.07;64.03;101151.16;5016513;28;20548;-51
2021/08/21 08:39:25;;;;;;;7.13;6.57;;;;;;;18.09;63.75;101145.81;5018930;28;20071;-51
2021/08/21 08:41:51;;;;;;;8.05;7.25;;;;;;;18.08;64.05;101144.88;5018330;28;20021;-51
2021/08/21 08:44:22;;;;;;;7.78;6.97;;;;;;;18.08;64.09;101150.22;5015637;28;20075;-52
2021/08/21 08:46:48;;;;;;;7.07;6.47;;;;;;;18.12;64.06;101150.16;5014373;28;20109;-52
2021/08/21 08:49:15;;;;;;;8.88;7.97;;;;;;;18.12;64.01;101152.84;5000227;28;20173;-52
2021/08/21 08:51:41;;;;;;;9.00;8.20;;;;;;;18.12;63.93;101155.50;5014729;28;20079;-52
2021/08/21 08:54:06;;;;;;;7.13;6.53;;;;;;;18.14;63.61;101156.34;5015186;28;20018;-53
2021/08/21 08:56:32;;;;;;;7.43;6.60;;;;;;;18.11;64.03;101151.09;5012250;28;20408;-52
2021/08/21 08:58:57;;;;;;;10.50;7.18;;;;;;;18.10;63.95;101152.88;5013659;28;20496;-52
2021/08/21 09:01:23;;;;;;;7.25;6.60;;;;;;;18.16;63.93;101157.16;5012814;28;20028;-52
2021/08/21 09:03:48;;;;;;;8.60;7.82;;;;;;;18.17;63.63;101164.25;4999810;28;20026;-52
2021/08/21 09:06:14;;;;;;;7.15;6.45;;;;;;;18.15;63.42;101152.72;4982815;28;20481;-52
2021/08/21 09:08:40;;;;;;;8.02;7.22;;;;;;;18.16;63.89;101157.16;5000432;28;20041;-52
2021/08/21 09:11:20;;;;;;;7.80;7.00;;;;;;;18.16;63.73;101157.16;4997107;28;21400;-52
2021/08/21 09:13:45;;;;;;;7.72;7.03;;;;;;;18.17;63.51;101156.25;5011814;28;20072;-50
2021/08/21 09:16:11;;;;;;;6.80;6.20;;;;;;;18.17;63.63;101153.56;5010999;28;20025;-51
2021/08/21 09:18:37;;;;;;;8.10;7.40;;;;;;;18.16;63.78;101157.16;5010725;28;20034;-51
2021/08/21 09:21:03;;;;;;;9.07;8.20;;;;;;;18.17;63.81;101158.91;5013155;28;20026;-50
2021/08/21 09:23:34;;;;;;;8.13;7.38;;;;;;;18.19;63.63;101154.38;5014273;23;20046;-52
2021/08/21 09:26:07;;;;;;;7.47;6.78;;;;;;;18.20;63.73;101156.13;5007873;28;20025;-52
2021/08/21 09:28:33;;;;;;;7.97;7.25;;;;;;;18.20;63.81;101164.13;5007951;28;20057;-53
2021/08/21 09:31:18;;;;;;;7.63;6.93;;;;;;;18.19;63.76;101157.03;5011088;28;20112;-51
2021/08/21 09:33:54;;;;;;;8.93;6.90;;;;;;;18.21;63.58;101152.53;5010084;28;20104;-50
2021/08/21 09:36:34;;;;;;;7.28;6.55;;;;;;;18.20;63.76;101148.09;5010551;28;20033;-52
2021/08/21 09:39:01;;;;;;;7.82;7.03;;;;;;;18.21;63.75;101149.88;5003125;28;20089;-54
2021/08/21 09:41:26;;;;;;;7.03;6.43;;;;;;;18.22;63.71;101146.28;5010983;28;20045;-53
2021/08/21 09:44:08;;;;;;;9.73;7.55;;;;;;;18.22;63.83;101148.94;5006759;28;20382;-54
2021/08/21 09:46:33;;;;;;;7.65;6.85;;;;;;;18.22;63.65;101151.63;5010577;28;20158;-52
2021/08/21 09:49:00;;;;;;;8.68;7.88;;;;;;;18.25;63.96;101147.97;5010745;28;20508;-52
2021/08/21 09:51:32;;;;;;;7.28;6.60;;;;;;;18.26;63.74;101147.03;5004227;28;20036;-52
2021/08/21 09:54:02;;;;;;;7.55;6.85;;;;;;;18.27;63.87;101149.66;5007386;28;20022;-52
2021/08/21 09:56:32;;;;;;;7.78;7.07;;;;;;;18.27;63.85;101138.13;5009204;28;20030;-52
2021/08/21 09:58:58;;;;;;;7.63;7.03;;;;;;;18.30;63.97;101146.88;5023037;28;20457;-53
2021/08/21 10:01:23;;;;;;;7.78;7.03;;;;;;;18.29;64.06;101137.13;5007165;28;20081;-51
2021/08/21 10:03:50;;;;;;;7.22;6.53;;;;;;;18.28;63.92;101135.38;5003867;28;20057;-52
2021/08/21 10:06:15;;;;;;;7.78;6.97;;;;;;;18.29;64.10;101134.47;5010264;28;20041;-53
2021/08/21 10:08:41;;;;;;;7.47;6.78;;;;;;;18.31;63.90;101139.75;5008250;28;20022;-51
2021/08/21 10:11:06;;;;;;;7.45;6.75;;;;;;;18.33;63.83;101132.53;5006124;28;20505;-51
2021/08/21 10:13:38;;;;;;;6.90;6.30;;;;;;;18.31;63.93;101135.25;5008581;28;20452;-51
2021/08/21 10:16:08;;;;;;;7.53;6.47;;;;;;;18.34;64.06;101128.94;5023164;28;20102;-51
2021/08/21 10:18:33;;;;;;;7.63;6.93;;;;;;;18.32;64.28;101129.03;5010172;28;20033;-51
2021/08/21 10:20:59;;;;;;;6.60;6.10;;;;;;;18.33;64.17;101133.44;5009062;28;20038;-50
2021/08/21 10:23:27;;;;;;;7.95;6.95;;;;;;;18.35;64.26;101133.38;5007721;28;21475;-52
2021/08/21 10:26:34;;;;;;;7.13;6.53;;;;;;;18.34;64.31;101121.81;5006052;28;20470;-51
2021/08/21 10:29:00;;;;;;;5.80;5.22;;;;;;;18.36;64.22;101132.44;4954757;28;20145;-51
2021/08/21 10:31:35;;;;;;;6.72;6.13;;;;;;;18.37;63.95;101122.66;5003986;28;20101;-52
2021/08/21 10:34:01;;;;;;;7.00;6.40;;;;;;;18.36;64.15;101121.75;5004422;28;20114;-54
2021/08/21 10:36:54;;;;;;;6.45;5.85;;;;;;;18.38;64.15;101124.38;4992166;28;20029;-54
2021/08/21 10:39:35;;;;;;;6.93;6.22;;;;;;;18.40;64.03;101125.19;5008533;28;20029;-51
2021/08/21 10:42:26;;;;;;;6.05;5.55;;;;;;;18.42;63.90;101120.69;5006963;28;20033;-51
2021/08/21 10:44:53;;;;;;;7.22;6.53;;;;;;;18.42;64.25;101131.34;5004335;28;20442;-54
2021/08/21 10:47:31;;;;;;;6.53;5.93;;;;;;;18.39;64.38;101132.34;4992395;28;20064;-52
2021/08/21 10:50:04;;;;;;;5.70;5.20;;;;;;;18.42;63.98;101123.34;5009911;28;20034;-50
2021/08/21 10:52:50;;;;;;;6.22;5.63;;;;;;;18.41;64.25;101126.94;4992009;28;20092;-51
2021/08/21 10:55:40;;;;;;;5.28;4.88;;;;;;;18.43;63.91;101122.41;5001498;28;20079;-51
2021/08/21 10:58:08;;;;;;;5.88;5.38;;;;;;;18.44;64.04;101118.84;4993682;28;20490;-51
2021/08/21 11:00:39;;;;;;;5.00;4.60;;;;;;;18.45;63.85;101117.91;5008510;28;20105;-51
2021/08/21 11:03:05;;;;;;;5.32;4.82;;;;;;;18.45;64.02;101113.41;5006006;28;20120;-51
2021/08/21 11:05:53;;;;;;;5.80;5.30;;;;;;;18.45;64.19;101117.91;4990705;28;20105;-51
2021/08/21 11:08:28;;;;;;;5.82;5.32;;;;;;;18.46;64.07;101115.19;5006974;28;20461;-50
2021/08/21 11:11:20;;;;;;;4.80;4.40;;;;;;;18.47;63.86;101108.03;5010159;28;20028;-54
2021/08/21 11:14:06;;;;;;;5.72;4.35;;;;;;;18.47;63.99;101108.03;5007763;28;20108;-54
2021/08/21 11:16:53;;;;;;;5.50;5.00;;;;;;;18.50;63.68;101105.25;5006026;28;20058;-53
2021/08/21 11:19:24;;;;;;;5.32;4.82;;;;;;;18.50;63.95;101104.41;5008500;28;20513;-54
2021/08/21 11:21:50;;;;;;;4.80;4.40;;;;;;;18.50;64.17;101109.75;5009459;28;20025;-54
2021/08/21 11:24:51;;;;;;;4.72;4.32;;;;;;;18.50;64.05;101109.75;5002110;28;20037;-51